LSGS METAR and TAF | Updated Today

LSGS METAR

Sion Airport

Observation time: 2 min. ago

LSGS 062020Z AUTO 00000KT 9999 FEW048 02/M03 Q1027

Need help? Read our tutorial on how to read METARs or read the parsed version below.

Sion Airport (LSGS) METAR

  • Weather conditions on Mon, 06 Feb 2023 20:20:00 +0000 (2 min. ago):
  • Present conditions: Dry
  • Clouds: A few at 1463 meters
  • Visibility: Greater than 10 km
  • Wind: Calm
  • Temperature: 2 celsius
  • Dew point: -3 celsius
  • Pressure: 1027 millibars
  • Remarks: None


Useful to know...

LSGS TAF

Sion Airport

TAF LSGS 061425Z 0615/0624 23005KT 9999 FEW050
Observation time: 5:57 hr. ago
Need help? Read our tutorial on how to read TAFs or read the parsed version below.

Parsed version of TAF for Sion Airport (LSGS)

  • From 06 February at 15:00 UTC, to day 06 of the month at 24:00 UTC
  • Clouds: A few at 1524 meters
  • Visibility: Greater than 10 km
  • Wind: 230 degrees at 5